createdAt,value
2018-08-11T00:02:00.863Z,100643.16
2018-08-11T00:04:58.709Z,100642.30
2018-08-11T00:07:57.761Z,100641.76
2018-08-11T00:10:55.740Z,100645.23
2018-08-11T00:13:53.802Z,100639.20
2018-08-11T00:16:51.539Z,100638.16
2018-08-11T00:19:49.432Z,100633.86
2018-08-11T00:22:48.543Z,100625.89
2018-08-11T00:25:46.496Z,100627.58
2018-08-11T00:28:44.440Z,100622.27
2018-08-11T00:31:42.161Z,100612.47
2018-08-11T00:34:40.012Z,100613.65
2018-08-11T00:37:37.993Z,100616.30
2018-08-11T00:40:36.999Z,100618.10
2018-08-11T00:43:34.972Z,100614.58
2018-08-11T00:46:33.044Z,100614.44
2018-08-11T00:49:31.183Z,100595.67
2018-08-11T00:52:28.839Z,100614.77
2018-08-11T00:55:27.504Z,100611.60
2018-08-11T00:58:25.420Z,100604.92
2018-08-11T01:01:23.436Z,100608.87
2018-08-11T01:04:21.511Z,100605.52
2018-08-11T01:07:19.270Z,100607.48
2018-08-11T01:10:18.230Z,100614.44
2018-08-11T01:13:16.131Z,100608.23
2018-08-11T01:16:14.230Z,100600.25
2018-08-11T01:19:12.187Z,100604.55
2018-08-11T01:22:10.187Z,100605.70
2018-08-11T01:25:08.206Z,100605.01
2018-08-11T01:28:06.006Z,100612.95
2018-08-11T01:31:03.823Z,100598.36
2018-08-11T01:34:01.726Z,100599.70
2018-08-11T01:36:59.351Z,100589.27
2018-08-11T01:39:57.098Z,100593.06
2018-08-11T01:42:56.235Z,100588.12
2018-08-11T01:45:53.982Z,100597.88
2018-08-11T01:48:51.799Z,100598.05
2018-08-11T01:51:49.791Z,100590.47
2018-08-11T01:54:47.692Z,100594.62
2018-08-11T01:57:45.770Z,100589.19
2018-08-11T02:00:43.869Z,100592.39
2018-08-11T02:03:41.817Z,100589.92
2018-08-11T02:06:39.831Z,100583.50
2018-08-11T02:09:37.848Z,100588.99
2018-08-11T02:12:35.793Z,100593.98
2018-08-11T02:15:33.601Z,100596.81
2018-08-11T02:18:30.751Z,100602.27
2018-08-11T02:21:28.717Z,100596.03
2018-08-11T02:24:26.636Z,100609.63
2018-08-11T02:27:24.664Z,100605.33
2018-08-11T02:30:25.719Z,100607.84
2018-08-11T02:33:23.593Z,100617.95
2018-08-11T02:36:21.669Z,100625.63
2018-08-11T02:39:22.569Z,100630.59
2018-08-11T02:42:20.387Z,100638.23
2018-08-11T02:45:20.472Z,100649.83
2018-08-11T02:48:18.513Z,100664.76
2018-08-11T02:51:16.451Z,100672.73
2018-08-11T02:54:14.443Z,100680.02
2018-08-11T02:57:12.315Z,100682.80
2018-08-11T03:00:10.126Z,100663.69
2018-08-11T03:03:07.913Z,100672.59
2018-08-11T03:06:05.840Z,100670.89
2018-08-11T03:09:03.791Z,100666.12
2018-08-11T03:12:01.732Z,100668.41
2018-08-11T03:14:59.754Z,100673.70
2018-08-11T03:17:57.820Z,100678.63
2018-08-11T03:20:55.683Z,100675.09
2018-08-11T03:23:53.772Z,100678.42
2018-08-11T03:26:51.847Z,100679.61
2018-08-11T03:29:49.816Z,100681.67
2018-08-11T03:32:47.995Z,100683.20
2018-08-11T03:35:45.742Z,100671.59
2018-08-11T03:38:43.634Z,100669.27
2018-08-11T03:41:41.604Z,100663.81
2018-08-11T03:44:39.490Z,100666.23
2018-08-11T03:47:37.570Z,100672.86
2018-08-11T03:50:35.702Z,100681.54
2018-08-11T03:53:33.713Z,100673.73
2018-08-11T03:56:31.754Z,100683.49
2018-08-11T03:59:30.651Z,100685.80
2018-08-11T04:02:28.340Z,100686.92
2018-08-11T04:05:26.326Z,100693.74
2018-08-11T04:08:24.091Z,100692.08
2018-08-11T04:11:22.183Z,100701.22
2018-08-11T04:14:20.085Z,100706.86
2018-08-11T04:17:18.247Z,100727.86
2018-08-11T04:20:18.190Z,100727.66
2018-08-11T04:23:15.521Z,100731.16
2018-08-11T04:26:13.583Z,100740.88
2018-08-11T04:29:11.575Z,100744.65
2018-08-11T04:32:09.532Z,100745.76
2018-08-11T04:35:07.436Z,100742.20
2018-08-11T04:38:05.354Z,100745.21
2018-08-11T04:41:03.392Z,100744.50
2018-08-11T04:44:01.193Z,100744.92
2018-08-11T04:46:59.238Z,100761.73
2018-08-11T04:49:57.279Z,100755.55
2018-08-11T04:52:55.211Z,100754.23
2018-08-11T04:55:53.053Z,100759.00
2018-08-11T04:58:50.853Z,100767.17
2018-08-11T05:01:48.999Z,100779.17
2018-08-11T05:04:46.631Z,100770.13
2018-08-11T05:07:44.456Z,100777.43
2018-08-11T05:10:42.592Z,100772.65
2018-08-11T05:13:40.477Z,100772.16
2018-08-11T05:16:38.204Z,100774.30
2018-08-11T05:19:36.275Z,100775.63
2018-08-11T05:22:34.084Z,100780.17
2018-08-11T05:25:31.924Z,100774.09
2018-08-11T05:28:29.724Z,100777.65
2018-08-11T05:31:27.560Z,100775.34
2018-08-11T05:34:24.747Z,100771.55
2018-08-11T05:37:22.619Z,100770.71
2018-08-11T05:40:20.680Z,100772.13
2018-08-11T05:43:18.667Z,100787.62
2018-08-11T05:46:16.753Z,100787.62
2018-08-11T05:49:15.416Z,100787.77
2018-08-11T05:52:14.298Z,100788.59
2018-08-11T05:55:12.170Z,100790.34
2018-08-11T05:58:10.084Z,100792.80
2018-08-11T06:01:08.148Z,100800.36
2018-08-11T06:04:05.960Z,100803.45
2018-08-11T06:07:03.682Z,100806.94
2018-08-11T06:10:01.588Z,100805.04
2018-08-11T06:12:59.195Z,100810.09
2018-08-11T06:15:57.095Z,100818.27
2018-08-11T06:18:54.787Z,100808.73
2018-08-11T06:21:52.737Z,100808.73
2018-08-11T06:24:50.707Z,100813.84
2018-08-11T06:27:48.782Z,100822.80
2018-08-11T06:30:46.678Z,100821.72
2018-08-11T06:33:44.552Z,100826.05
2018-08-11T06:36:42.481Z,100819.84
2018-08-11T06:39:40.377Z,100815.26
2018-08-11T06:42:38.402Z,100817.84
2018-08-11T06:45:36.430Z,100813.93
2018-08-11T06:48:34.274Z,100811.98
2018-08-11T06:51:32.193Z,100812.95
2018-08-11T06:54:30.146Z,100814.61
2018-08-11T06:57:28.016Z,100822.92
2018-08-11T07:00:25.875Z,100827.95
2018-08-11T07:03:23.840Z,100832.55
2018-08-11T07:06:21.783Z,100846.05
2018-08-11T07:09:21.650Z,100840.78
2018-08-11T07:12:19.720Z,100841.27
2018-08-11T07:15:17.464Z,100843.47
2018-08-11T07:18:15.319Z,100845.33
2018-08-11T07:21:13.365Z,100847.05
2018-08-11T07:24:11.082Z,100846.47
2018-08-11T07:27:09.058Z,100846.08
2018-08-11T07:30:06.993Z,100842.45
2018-08-11T07:33:04.728Z,100843.45
2018-08-11T07:36:02.725Z,100836.47
2018-08-11T07:39:00.569Z,100842.55
2018-08-11T07:41:58.631Z,100839.20
2018-08-11T07:44:56.643Z,100856.63
2018-08-11T07:47:54.403Z,100869.44
2018-08-11T07:50:52.394Z,100857.81
2018-08-11T07:53:50.101Z,100850.97
2018-08-11T07:56:47.862Z,100844.16
2018-08-11T07:59:45.797Z,100862.72
2018-08-11T08:02:43.683Z,100850.13
2018-08-11T08:05:41.499Z,100860.69
2018-08-11T08:08:39.405Z,100849.06
2018-08-11T08:11:37.391Z,100846.37
2018-08-11T08:14:35.246Z,100838.18
2018-08-11T08:17:33.064Z,100842.30
2018-08-11T08:20:30.183Z,100836.42
2018-08-11T08:23:28.106Z,100856.11
2018-08-11T08:26:26.185Z,100845.31
2018-08-11T08:29:23.883Z,100856.18
2018-08-11T08:32:21.727Z,100863.58
2018-08-11T08:35:19.646Z,100862.23
2018-08-11T08:38:17.695Z,100880.34
2018-08-11T08:41:15.768Z,100851.38
2018-08-11T08:44:13.646Z,100851.69
2018-08-11T08:47:11.683Z,100845.66
2018-08-11T08:50:09.496Z,100868.36
2018-08-11T08:53:07.408Z,100863.58
2018-08-11T08:56:05.628Z,100849.75
2018-08-11T08:59:03.649Z,100835.55
2018-08-11T09:02:01.491Z,100860.55
2018-08-11T09:04:59.467Z,100860.25
2018-08-11T09:07:57.571Z,100873.81
2018-08-11T09:10:55.402Z,100859.48
2018-08-11T09:13:53.516Z,100860.41
2018-08-11T09:16:51.375Z,100859.79
2018-08-11T09:19:49.332Z,100852.22
2018-08-11T09:22:47.519Z,100862.00
2018-08-11T09:25:45.491Z,100889.62
2018-08-11T09:28:43.551Z,100865.72
2018-08-11T09:31:41.760Z,100871.95
2018-08-11T09:34:39.496Z,100852.80
2018-08-11T09:37:37.439Z,100833.16
2018-08-11T09:40:35.156Z,100858.72
2018-08-11T09:43:32.995Z,100855.14
2018-08-11T09:46:30.839Z,100849.18
2018-08-11T09:49:28.756Z,100859.59
2018-08-11T09:52:26.617Z,100867.34
2018-08-11T09:55:24.659Z,100874.52
2018-08-11T09:58:22.453Z,100888.38
2018-08-11T10:01:26.407Z,100891.79
2018-08-11T10:04:24.595Z,100871.23
2018-08-11T10:07:22.483Z,100866.58
2018-08-11T10:10:20.320Z,100863.49
2018-08-11T10:13:18.435Z,100858.66
2018-08-11T10:16:16.315Z,100852.99
2018-08-11T10:19:14.072Z,100871.95
2018-08-11T10:22:12.186Z,100863.55
2018-08-11T10:25:10.019Z,100876.88
2018-08-11T10:28:08.275Z,100883.05
2018-08-11T10:31:06.368Z,100871.42
2018-08-11T10:34:04.108Z,100875.63
2018-08-11T10:37:02.210Z,100872.34
2018-08-11T10:40:00.269Z,100874.88
2018-08-11T10:42:58.187Z,100876.20
2018-08-11T10:45:56.366Z,100882.30
2018-08-11T10:48:54.354Z,100870.70
2018-08-11T10:51:52.463Z,100870.77
2018-08-11T10:54:50.400Z,100864.47
2018-08-11T10:57:48.451Z,100845.80
2018-08-11T11:00:46.165Z,100844.14
2018-08-11T11:03:44.282Z,100844.03
2018-08-11T11:06:42.136Z,100831.28
2018-08-11T11:09:40.009Z,100828.98
2018-08-11T11:12:37.862Z,100820.93
2018-08-11T11:15:35.768Z,100820.42
2018-08-11T11:18:33.554Z,100829.07
2018-08-11T11:21:31.489Z,100826.23
2018-08-11T11:24:29.448Z,100823.95
2018-08-11T11:27:27.459Z,100828.62
2018-08-11T11:30:25.216Z,100839.34
2018-08-11T11:33:23.333Z,100835.27
2018-08-11T11:36:21.363Z,100828.38
2018-08-11T11:39:21.176Z,100841.22
2018-08-11T11:42:19.264Z,100854.05
2018-08-11T11:45:17.119Z,100862.42
2018-08-11T11:48:14.727Z,100864.33
2018-08-11T11:51:12.703Z,100861.34
2018-08-11T11:54:10.322Z,100857.44
2018-08-11T11:57:08.360Z,100847.98
2018-08-11T12:00:06.271Z,100848.16
2018-08-11T12:03:04.263Z,100848.94
2018-08-11T12:06:02.060Z,100842.11
2018-08-11T12:08:59.953Z,100843.74
2018-08-11T12:11:57.736Z,100857.06
2018-08-11T12:14:55.672Z,100845.44
2018-08-11T12:17:53.555Z,100837.41
2018-08-11T12:20:51.524Z,100836.65
2018-08-11T12:23:49.340Z,100834.73
2018-08-11T12:26:47.316Z,100835.42
2018-08-11T12:29:45.262Z,100841.96
2018-08-11T12:32:43.315Z,100848.13
2018-08-11T12:35:41.147Z,100846.87
2018-08-11T12:38:38.997Z,100838.58
2018-08-11T12:41:37.126Z,100838.08
2018-08-11T12:44:34.988Z,100844.73
2018-08-11T12:47:32.873Z,100850.37
2018-08-11T12:50:30.750Z,100850.41
2018-08-11T12:53:28.445Z,100850.28
2018-08-11T12:56:26.469Z,100845.70
2018-08-11T12:59:24.179Z,100833.84
2018-08-11T13:02:22.097Z,100847.83
2018-08-11T13:05:19.792Z,100845.30
2018-08-11T13:08:17.463Z,100850.23
2018-08-11T13:11:15.375Z,100849.08
2018-08-11T13:14:14.295Z,100847.20
2018-08-11T13:17:12.267Z,100842.23
2018-08-11T13:20:10.322Z,100851.78
2018-08-11T13:23:08.207Z,100849.35
2018-08-11T13:26:06.303Z,100849.06
2018-08-11T13:29:04.278Z,100849.50
2018-08-11T13:32:02.144Z,100838.16
2018-08-11T13:35:00.182Z,100846.91
2018-08-11T13:37:58.197Z,100840.11
2018-08-11T13:40:56.084Z,100840.28
2018-08-11T13:43:53.928Z,100831.84
2018-08-11T13:46:51.870Z,100828.51
2018-08-11T13:49:49.750Z,100819.30
2018-08-11T13:52:47.667Z,100824.38
2018-08-11T13:55:44.716Z,100829.28
2018-08-11T13:58:42.660Z,100816.09
2018-08-11T14:01:40.665Z,100832.73
2018-08-11T14:04:46.982Z,100828.39
2018-08-11T14:07:45.110Z,100831.45
2018-08-11T14:10:42.988Z,100822.46
2018-08-11T14:13:40.234Z,100826.23
2018-08-11T14:16:38.327Z,100825.72
2018-08-11T14:19:36.071Z,100826.41
2018-08-11T14:22:34.067Z,100822.59
2018-08-11T14:25:32.139Z,100818.96
2018-08-11T14:28:30.036Z,100813.75
2018-08-11T14:31:28.042Z,100811.81
2018-08-11T14:34:25.827Z,100820.73
2018-08-11T14:37:23.525Z,100812.43
2018-08-11T14:40:22.292Z,100816.07
2018-08-11T14:43:20.061Z,100819.30
2018-08-11T14:46:18.300Z,100809.23
2018-08-11T14:49:16.062Z,100811.91
2018-08-11T14:52:14.076Z,100810.25
2018-08-11T14:55:11.975Z,100820.19
2018-08-11T14:58:09.744Z,100814.13
2018-08-11T15:01:07.429Z,100819.06
2018-08-11T15:04:05.248Z,100819.42
2018-08-11T15:07:02.491Z,100822.69
2018-08-11T15:10:00.367Z,100822.35
2018-08-11T15:12:58.515Z,100820.84
2018-08-11T15:15:56.469Z,100827.99
2018-08-11T15:18:54.538Z,100826.66
2018-08-11T15:21:52.426Z,100819.95
2018-08-11T15:24:50.494Z,100817.15
2018-08-11T15:27:48.547Z,100816.45
2018-08-11T15:30:46.573Z,100813.52
2018-08-11T15:33:44.420Z,100813.66
2018-08-11T15:36:42.179Z,100811.92
2018-08-11T15:39:40.036Z,100816.95
2018-08-11T15:42:37.930Z,100822.59
2018-08-11T15:45:35.931Z,100811.38
2018-08-11T15:48:33.771Z,100811.23
2018-08-11T15:51:31.671Z,100809.41
2018-08-11T15:54:29.304Z,100812.63
2018-08-11T15:57:27.277Z,100802.88
2018-08-11T16:00:25.130Z,100801.50
2018-08-11T16:03:22.755Z,100798.01
2018-08-11T16:06:20.798Z,100798.95
2018-08-11T16:09:20.700Z,100789.85
2018-08-11T16:12:18.686Z,100784.78
2018-08-11T16:15:16.733Z,100781.30
2018-08-11T16:18:13.871Z,100787.08
2018-08-11T16:21:11.724Z,100796.74
2018-08-11T16:24:09.628Z,100801.81
2018-08-11T16:27:07.595Z,100804.19
2018-08-11T16:30:05.380Z,100794.81
2018-08-11T16:33:02.596Z,100795.96
2018-08-11T16:36:00.612Z,100793.41
2018-08-11T16:38:58.431Z,100803.84
2018-08-11T16:41:56.413Z,100813.88
2018-08-11T16:44:54.508Z,100807.05
2018-08-11T16:47:52.495Z,100799.58
2018-08-11T16:50:50.099Z,100802.25
2018-08-11T16:53:48.163Z,100804.44
2018-08-11T16:56:46.057Z,100802.56
2018-08-11T16:59:44.058Z,100807.94
2018-08-11T17:02:42.014Z,100809.48
2018-08-11T17:05:40.208Z,100804.74
2018-08-11T17:08:38.048Z,100802.31
2018-08-11T17:11:35.911Z,100805.05
2018-08-11T17:14:33.959Z,100806.53
2018-08-11T17:17:31.712Z,100802.82
2018-08-11T17:20:29.648Z,100794.23
2018-08-11T17:23:27.619Z,100796.71
2018-08-11T17:26:25.535Z,100803.95
2018-08-11T17:29:23.591Z,100809.65
2018-08-11T17:32:21.592Z,100810.64
2018-08-11T17:35:19.388Z,100805.67
2018-08-11T17:38:17.299Z,100815.66
2018-08-11T17:41:15.440Z,100813.06
2018-08-11T17:44:13.439Z,100809.11
2018-08-11T17:47:11.447Z,100809.71
2018-08-11T17:50:09.211Z,100813.20
2018-08-11T17:53:07.050Z,100814.94
2018-08-11T17:56:05.036Z,100820.89
2018-08-11T17:59:03.229Z,100819.78
2018-08-11T18:02:01.467Z,100830.02
2018-08-11T18:04:59.259Z,100826.09
2018-08-11T18:07:57.105Z,100835.42
2018-08-11T18:10:54.887Z,100841.49
2018-08-11T18:13:53.045Z,100844.92
2018-08-11T18:16:51.093Z,100852.07
2018-08-11T18:19:49.171Z,100853.48
2018-08-11T18:22:46.988Z,100848.03
2018-08-11T18:25:45.264Z,100849.36
2018-08-11T18:28:43.296Z,100853.69
2018-08-11T18:31:41.192Z,100852.08
2018-08-11T18:34:39.134Z,100854.75
2018-08-11T18:37:37.061Z,100852.27
2018-08-11T18:40:35.268Z,100854.46
2018-08-11T18:43:33.113Z,100863.16
2018-08-11T18:46:31.179Z,100861.88
2018-08-11T18:49:29.283Z,100864.55
2018-08-11T19:06:31.307Z,100883.05
2018-08-11T19:09:30.880Z,100887.53
2018-08-11T19:12:28.728Z,100891.17
2018-08-11T19:15:26.800Z,100890.00
2018-08-11T19:18:23.780Z,100891.31
2018-08-11T19:21:21.731Z,100893.74
2018-08-11T19:24:19.681Z,100899.72
2018-08-11T19:27:16.758Z,100902.75
2018-08-11T19:30:14.819Z,100903.22
2018-08-11T19:33:12.792Z,100901.48
2018-08-11T19:36:10.884Z,100903.53
2018-08-11T19:39:09.026Z,100898.93
2018-08-11T19:42:06.499Z,100895.19
2018-08-11T19:45:04.403Z,100890.91
2018-08-11T19:48:02.511Z,100894.13
2018-08-11T19:51:00.752Z,100891.81
2018-08-11T19:53:58.791Z,100894.22
2018-08-11T19:56:56.903Z,100890.15
2018-08-11T19:59:54.412Z,100894.41
2018-08-11T20:02:51.788Z,100894.02
2018-08-11T20:05:48.896Z,100889.31
2018-08-11T20:08:46.101Z,100889.69
2018-08-11T20:11:43.220Z,100884.48
2018-08-11T20:14:40.332Z,100887.00
2018-08-11T20:17:37.827Z,100887.96
2018-08-11T20:20:35.067Z,100890.33
2018-08-11T20:23:32.623Z,100891.00
2018-08-11T20:26:29.810Z,100889.88
2018-08-11T20:29:27.104Z,100887.56
2018-08-11T20:32:24.311Z,100884.16
2018-08-11T20:35:21.624Z,100887.41
2018-08-11T20:38:18.758Z,100889.05
2018-08-11T20:41:16.919Z,100889.95
2018-08-11T20:44:14.090Z,100891.95
2018-08-11T20:47:12.080Z,100888.92
2018-08-11T20:50:09.682Z,100888.77
2018-08-11T20:53:07.431Z,100883.95
2018-08-11T20:56:05.334Z,100878.94
2018-08-11T20:59:03.480Z,100890.86
2018-08-11T21:02:00.614Z,100891.20
2018-08-11T21:04:58.612Z,100890.27
2018-08-11T21:07:55.651Z,100887.02
2018-08-11T21:10:53.571Z,100880.80
2018-08-11T21:13:50.624Z,100883.72
2018-08-11T21:16:47.934Z,100884.68
2018-08-11T21:19:45.136Z,100881.27
2018-08-11T21:22:43.291Z,100878.14
2018-08-11T21:25:40.457Z,100866.75
2018-08-11T21:28:37.663Z,100873.49
2018-08-11T21:31:34.955Z,100869.70
2018-08-11T21:34:32.925Z,100871.80
2018-08-11T21:37:30.088Z,100869.36
2018-08-11T21:40:29.209Z,100866.94
2018-08-11T21:43:26.963Z,100865.57
2018-08-11T21:46:24.844Z,100854.16
2018-08-11T21:49:22.683Z,100860.28
2018-08-11T21:52:20.636Z,100860.66
2018-08-11T21:55:19.568Z,100860.56
2018-08-11T21:58:16.628Z,100858.02
2018-08-11T22:01:20.686Z,100856.48
2018-08-11T22:04:18.604Z,100854.70
2018-08-11T22:07:17.731Z,100854.91
2018-08-11T22:10:15.687Z,100859.59
2018-08-11T22:13:13.875Z,100856.08
2018-08-11T22:16:11.937Z,100859.37
2018-08-11T22:19:09.821Z,100854.52
2018-08-11T22:22:06.883Z,100857.77
2018-08-11T22:25:04.036Z,100863.67
2018-08-11T22:28:02.016Z,100856.23
2018-08-11T22:31:00.079Z,100857.84
2018-08-11T22:33:57.451Z,100856.82
2018-08-11T22:36:54.867Z,100850.22
2018-08-11T22:39:52.968Z,100851.05
2018-08-11T22:42:50.880Z,100849.09
2018-08-11T22:45:48.192Z,100848.45
2018-08-11T22:48:45.314Z,100844.11
2018-08-11T22:51:43.031Z,100840.27
2018-08-11T22:54:40.773Z,100840.73
2018-08-11T22:57:37.827Z,100836.14
2018-08-11T23:00:37.878Z,100832.12
2018-08-11T23:03:35.861Z,100829.14
2018-08-11T23:06:33.591Z,100829.28
2018-08-11T23:09:30.762Z,100827.80
2018-08-11T23:12:28.655Z,100834.02
2018-08-11T23:15:28.517Z,100831.30
2018-08-11T23:18:26.251Z,100839.90
2018-08-11T23:21:24.206Z,100839.61
2018-08-11T23:24:22.040Z,100835.91
2018-08-11T23:27:20.050Z,100831.86
2018-08-11T23:30:17.227Z,100831.37
2018-08-11T23:33:15.229Z,100829.96
2018-08-11T23:36:12.761Z,100827.20
2018-08-11T23:39:11.839Z,100826.34
2018-08-11T23:42:09.311Z,100827.33
2018-08-11T23:45:07.231Z,100827.53
2018-08-11T23:48:04.448Z,100822.44
2018-08-11T23:51:02.325Z,100821.73
2018-08-11T23:54:00.207Z,100822.82
2018-08-11T23:56:57.644Z,100824.67
2018-08-11T23:59:54.868Z,100818.91
